Terminal Aerodrome Forecast
Issued by NWS

Home | Current Version | Previous Version | Text Only | Print | Product List | Glossary Off
Versions: 1 2 3 4 5 6 7 8 9 10 11 12 13 14 15 16 17 18

943
FTUS43 KMPX 290904 AAA
TAFAXN
TAF AMD
KAXN 290904Z 2909/3006 07012KT P6SM -SHRA SCT012 OVC025
      TEMPO 2909/2911 1 1/2SM TSRA OVC012CB
     FM291100 19007KT P6SM SCT015 BKN035
     FM291500 25009KT P6SM SCT250
     FM292000 30005KT P6SM SCT060 BKN090
      TEMPO 2920/2923 -TSRA BKN060CB OVC090=

USA.gov is the U.S. government's official web portal to all federal, state and local government web resources and services.